Terminal Aerodrome Forecast
Issued by NWS Sioux Falls, SD

Home | Current Version | Previous Version | Graphics & Text | Print | Product List | Glossary Off
Versions: 1 2 3 4 5 6 7 8 9 10 11 12 13

000
FTUS43 KFSD 232320
TAFHON
TAF
KHON 232320Z 2400/2424 02018KT 6SM -SN OVC020
     FM240600 01017G29KT P6SM OVC025
     FM240900 36018G30KT P6SM BKN035
     FM241200 35019G31KT P6SM SCT180=

USA.gov is the U.S. government's official web portal to all federal, state and local government web resources and services.